createdAt,value
2018-01-12T00:00:22.792Z,97713.41
2018-01-12T00:02:50.303Z,97717.52
2018-01-12T00:05:17.817Z,97729.34
2018-01-12T00:07:45.420Z,97730.84
2018-01-12T00:10:12.926Z,97725.48
2018-01-12T00:12:40.452Z,97724.82
2018-01-12T00:15:07.994Z,97729.34
2018-01-12T00:17:35.554Z,97732.50
2018-01-12T00:20:03.113Z,97733.24
2018-01-12T00:22:30.769Z,97734.88
2018-01-12T00:24:59.050Z,97728.25
2018-01-12T00:27:26.565Z,97733.75
2018-01-12T00:29:54.167Z,97731.52
2018-01-12T00:32:21.730Z,97739.41
2018-01-12T00:34:49.287Z,97735.34
2018-01-12T00:37:17.054Z,97738.02
2018-01-12T00:39:44.610Z,97739.73
2018-01-12T00:42:12.177Z,97738.47
2018-01-12T00:44:39.823Z,97745.14
2018-01-12T00:47:07.338Z,97743.51
2018-01-12T00:49:34.854Z,97744.99
2018-01-12T00:52:02.609Z,97750.53
2018-01-12T00:54:30.129Z,97751.13
2018-01-12T00:56:57.649Z,97751.33
2018-01-12T00:59:25.235Z,97755.86
2018-01-12T01:01:52.750Z,97754.05
2018-01-12T01:04:20.305Z,97759.13
2018-01-12T01:06:47.889Z,97760.34
2018-01-12T01:09:15.420Z,97761.53
2018-01-12T01:11:42.980Z,97760.59
2018-01-12T01:14:10.642Z,97765.13
2018-01-12T01:16:38.216Z,97758.80
2018-01-12T01:19:05.894Z,97768.48
2018-01-12T01:21:33.462Z,97768.08
2018-01-12T01:24:00.980Z,97769.92
2018-01-12T01:26:28.484Z,97771.68
2018-01-12T01:28:56.291Z,97766.64
2018-01-12T01:31:23.815Z,97772.47
2018-01-12T01:33:51.336Z,97767.44
2018-01-12T01:36:18.898Z,97766.85
2018-01-12T01:38:46.413Z,97769.12
2018-01-12T01:41:13.932Z,97776.63
2018-01-12T01:43:41.477Z,97777.89
2018-01-12T01:46:09.013Z,97774.38
2018-01-12T01:48:41.590Z,97782.09
2018-01-12T01:51:09.149Z,97777.97
2018-01-12T01:53:36.709Z,97780.18
2018-01-12T01:56:04.277Z,97784.72
2018-01-12T01:58:31.827Z,97787.27
2018-01-12T02:00:59.338Z,97788.72
2018-01-12T02:03:27.314Z,97791.50
2018-01-12T02:05:54.982Z,97790.55
2018-01-12T02:08:22.489Z,97791.43
2018-01-12T02:10:50.460Z,97794.06
2018-01-12T02:13:17.967Z,97794.59
2018-01-12T02:15:45.482Z,97799.92
2018-01-12T02:18:13.034Z,97797.91
2018-01-12T02:20:40.575Z,97792.95
2018-01-12T02:23:08.089Z,97806.89
2018-01-12T02:25:35.898Z,97803.43
2018-01-12T02:28:03.405Z,97805.66
2018-01-12T02:30:30.928Z,97801.45
2018-01-12T02:32:58.679Z,97804.78
2018-01-12T02:35:26.194Z,97811.14
2018-01-12T02:37:53.705Z,97813.13
2018-01-12T02:40:21.655Z,97802.67
2018-01-12T02:42:49.178Z,97809.35
2018-01-12T02:45:16.702Z,97809.39
2018-01-12T02:47:44.649Z,97812.28
2018-01-12T02:50:12.207Z,97810.61
2018-01-12T02:52:39.717Z,97806.49
2018-01-12T02:55:07.272Z,97805.66
2018-01-12T02:57:34.783Z,97812.67
2018-01-12T03:00:02.302Z,97806.00
2018-01-12T03:02:30.104Z,97807.63
2018-01-12T03:04:57.664Z,97811.95
2018-01-12T03:07:25.234Z,97813.97
2018-01-12T03:09:52.824Z,97810.66
2018-01-12T03:12:20.341Z,97817.44
2018-01-12T03:14:47.901Z,97821.63
2018-01-12T03:17:15.664Z,97820.30
2018-01-12T03:19:43.178Z,97818.20
2018-01-12T03:22:10.693Z,97827.84
2018-01-12T03:24:38.649Z,97830.75
2018-01-12T03:27:06.209Z,97832.73
2018-01-12T03:29:33.721Z,97836.50
2018-01-12T03:32:01.410Z,97839.44
2018-01-12T03:34:28.930Z,97841.20
2018-01-12T03:36:56.446Z,97843.98
2018-01-12T03:39:24.209Z,97850.39
2018-01-12T03:41:51.722Z,97841.89
2018-01-12T03:44:19.234Z,97839.33
2018-01-12T03:46:47.069Z,97840.12
2018-01-12T03:49:14.578Z,97838.11
2018-01-12T03:51:42.089Z,97840.78
2018-01-12T03:54:09.630Z,97839.90
2018-01-12T03:56:37.143Z,97837.84
2018-01-12T03:59:04.681Z,97838.83
2018-01-12T04:01:32.237Z,97842.33
2018-01-12T04:03:59.746Z,97835.16
2018-01-12T04:06:27.257Z,97835.05
2018-01-12T04:08:55.021Z,97839.94
2018-01-12T04:11:22.542Z,97841.66
2018-01-12T04:13:50.058Z,97841.38
2018-01-12T04:16:17.714Z,97848.16
2018-01-12T04:18:45.256Z,97845.05
2018-01-12T04:21:12.829Z,97850.39
2018-01-12T04:23:40.393Z,97849.77
2018-01-12T04:26:07.935Z,97852.52
2018-01-12T04:28:35.446Z,97856.27
2018-01-12T04:31:03.003Z,97848.71
2018-01-12T04:33:30.518Z,97859.66
2018-01-12T04:35:58.376Z,97856.72
2018-01-12T04:38:26.345Z,97859.63
2018-01-12T04:40:53.853Z,97864.27
2018-01-12T04:43:21.772Z,97860.38
2018-01-12T04:45:49.514Z,97851.11
2018-01-12T04:48:17.030Z,97859.58
2018-01-12T04:50:44.553Z,97863.78
2018-01-12T04:53:12.498Z,97869.62
2018-01-12T04:55:40.009Z,97863.78
2018-01-12T04:58:07.686Z,97873.28
2018-01-12T05:00:35.488Z,97874.61
2018-01-12T05:03:03.011Z,97874.12
2018-01-12T05:05:30.543Z,97876.98
2018-01-12T05:07:58.386Z,97878.58
2018-01-12T05:10:25.945Z,97881.78
2018-01-12T05:12:53.506Z,97880.72
2018-01-12T05:15:21.473Z,97882.78
2018-01-12T05:17:49.032Z,97883.84
2018-01-12T05:20:16.592Z,97887.55
2018-01-12T05:22:44.546Z,97884.58
2018-01-12T05:25:12.053Z,97886.64
2018-01-12T05:27:39.613Z,97878.31
2018-01-12T05:30:07.175Z,97884.12
2018-01-12T05:32:34.698Z,97884.45
2018-01-12T05:35:02.253Z,97881.06
2018-01-12T05:37:29.807Z,97882.66
2018-01-12T05:39:57.371Z,97888.42
2018-01-12T05:42:24.931Z,97894.72
2018-01-12T05:44:52.670Z,97888.34
2018-01-12T05:47:20.183Z,97889.34
2018-01-12T05:49:47.704Z,97895.09
2018-01-12T05:52:15.275Z,97895.02
2018-01-12T05:54:42.832Z,97897.91
2018-01-12T05:57:10.389Z,97900.17
2018-01-12T05:59:37.942Z,97903.80
2018-01-12T06:02:17.414Z,97897.03
2018-01-12T06:04:57.358Z,97905.52
2018-01-12T06:07:24.958Z,97912.65
2018-01-12T06:09:52.485Z,97909.67
2018-01-12T06:12:20.328Z,97907.84
2018-01-12T06:14:47.841Z,97916.74
2018-01-12T06:17:15.349Z,97913.30
2018-01-12T06:19:42.913Z,97915.66
2018-01-12T06:22:10.451Z,97914.75
2018-01-12T06:24:37.975Z,97917.31
2018-01-12T06:27:05.545Z,97930.14
2018-01-12T06:29:33.058Z,97923.08
2018-01-12T06:32:00.630Z,97923.11
2018-01-12T06:34:28.557Z,97928.91
2018-01-12T06:36:56.115Z,97928.87
2018-01-12T06:39:23.689Z,97926.86
2018-01-12T06:41:51.262Z,97930.55
2018-01-12T06:44:18.795Z,97926.89
2018-01-12T06:46:46.351Z,97930.22
2018-01-12T06:49:14.298Z,97933.88
2018-01-12T06:51:41.822Z,97936.74
2018-01-12T06:54:09.337Z,97938.84
2018-01-12T06:56:36.895Z,97944.72
2018-01-12T06:59:04.454Z,97946.36
2018-01-12T07:01:31.958Z,97945.46
2018-01-12T07:03:59.753Z,97948.95
2018-01-12T07:06:27.275Z,97951.70
2018-01-12T07:08:54.786Z,97955.77
2018-01-12T07:11:22.351Z,97959.16
2018-01-12T07:13:49.919Z,97968.11
2018-01-12T07:16:17.483Z,97966.55
2018-01-12T07:18:45.064Z,97971.66
2018-01-12T07:21:24.488Z,97974.13
2018-01-12T07:23:52.033Z,97974.09
2018-01-12T07:26:19.585Z,97978.67
2018-01-12T07:28:47.144Z,97976.05
2018-01-12T07:31:14.853Z,97980.02
2018-01-12T07:33:42.374Z,97976.93
2018-01-12T07:36:09.892Z,97976.25
2018-01-12T07:38:37.994Z,97976.07
2018-01-12T07:41:05.556Z,97973.30
2018-01-12T07:43:33.122Z,97978.05
2018-01-12T07:46:00.858Z,97976.33
2018-01-12T07:48:28.370Z,97974.11
2018-01-12T07:50:55.892Z,97974.13
2018-01-12T07:53:23.581Z,97973.14
2018-01-12T07:55:51.113Z,97970.59
2018-01-12T07:58:18.681Z,97973.60
2018-01-12T08:00:51.830Z,97979.01
2018-01-12T08:03:19.362Z,97979.41
2018-01-12T08:05:46.868Z,97982.38
2018-01-12T08:08:14.438Z,97980.84
2018-01-12T08:10:41.945Z,97982.55
2018-01-12T08:13:09.457Z,97984.91
2018-01-12T08:15:37.016Z,97988.34
2018-01-12T08:18:04.573Z,97998.25
2018-01-12T08:20:32.133Z,97997.53
2018-01-12T08:23:00.206Z,97997.27
2018-01-12T08:25:27.764Z,97999.30
2018-01-12T08:27:55.278Z,98003.56
2018-01-12T08:30:23.165Z,97993.04
2018-01-12T08:32:50.673Z,97990.52
2018-01-12T08:35:18.217Z,97996.64
2018-01-12T08:37:45.761Z,97995.95
2018-01-12T08:40:13.277Z,97991.53
2018-01-12T08:42:40.791Z,97998.08
2018-01-12T08:45:08.361Z,97991.94
2018-01-12T08:47:35.872Z,97995.73
2018-01-12T08:50:03.385Z,97995.65
2018-01-12T08:52:31.219Z,98002.02
2018-01-12T08:54:58.849Z,98003.47
2018-01-12T08:57:26.378Z,98000.95
2018-01-12T08:59:54.148Z,98003.70
2018-01-12T09:02:21.660Z,98002.06
2018-01-12T09:04:49.220Z,98009.94
2018-01-12T09:07:16.961Z,98007.14
2018-01-12T09:09:44.538Z,98000.83
2018-01-12T09:12:12.058Z,98012.73
2018-01-12T09:14:50.601Z,98016.72
2018-01-12T09:17:30.261Z,98014.97
2018-01-12T09:20:10.210Z,98016.52
2018-01-12T09:22:47.498Z,98022.29
2018-01-12T09:25:26.115Z,98033.77
2018-01-12T09:27:53.674Z,98034.67
2018-01-12T09:30:21.556Z,98030.13
2018-01-12T09:32:50.045Z,98036.63
2018-01-12T09:35:18.200Z,98036.47
2018-01-12T09:37:45.756Z,98038.03
2018-01-12T09:40:28.348Z,98046.10
2018-01-12T09:42:55.863Z,98043.41
2018-01-12T09:45:23.403Z,98053.04
2018-01-12T09:48:15.213Z,98056.44
2018-01-12T09:50:42.781Z,98050.30
2018-01-12T09:53:10.290Z,98051.23
2018-01-12T09:55:38.065Z,98058.70
2018-01-12T09:58:05.578Z,98055.98
2018-01-12T10:00:50.289Z,98052.53
2018-01-12T10:03:17.792Z,98059.16
2018-01-12T10:05:45.327Z,98056.72
2018-01-12T10:08:16.999Z,98060.69
2018-01-12T10:10:45.054Z,98065.44
2018-01-12T10:13:12.614Z,98059.31
2018-01-12T10:15:40.479Z,98050.02
2018-01-12T10:21:27.932Z,98055.38
2018-01-12T10:23:55.460Z,98051.73
2018-01-12T10:26:22.982Z,98052.31
2018-01-12T10:29:02.378Z,98056.02
2018-01-12T10:31:39.785Z,98057.05
2018-01-12T10:34:08.174Z,98059.48
2018-01-12T10:36:40.436Z,98065.58
2018-01-12T10:39:19.856Z,98063.13
2018-01-12T10:41:59.181Z,98062.23
2018-01-12T10:44:26.929Z,98052.86
2018-01-12T10:47:19.012Z,98057.55
2018-01-12T10:49:58.306Z,98054.02
2018-01-12T10:52:31.901Z,98048.76
2018-01-12T10:54:59.473Z,98054.17
2018-01-12T10:57:26.995Z,98058.79
2018-01-12T10:59:54.515Z,98062.39
2018-01-12T11:02:22.249Z,98063.98
2018-01-12T11:04:49.762Z,98065.66
2018-01-12T11:07:17.275Z,98062.55
2018-01-12T11:09:45.125Z,98053.44
2018-01-12T11:12:12.641Z,98049.42
2018-01-12T11:14:40.161Z,98048.70
2018-01-12T11:17:07.742Z,98044.58
2018-01-12T11:19:35.266Z,98042.44
2018-01-12T11:22:02.785Z,98039.41
2018-01-12T11:24:30.680Z,98050.39
2018-01-12T11:26:58.194Z,98042.72
2018-01-12T11:29:25.717Z,98042.60
2018-01-12T11:31:53.558Z,98040.27
2018-01-12T11:34:21.533Z,98041.63
2018-01-12T11:36:49.058Z,98033.50
2018-01-12T11:39:16.617Z,98033.29
2018-01-12T11:41:44.138Z,98036.39
2018-01-12T11:44:11.662Z,98034.02
2018-01-12T11:46:39.210Z,98037.67
2018-01-12T11:49:06.725Z,98041.93
2018-01-12T11:51:34.246Z,98038.25
2018-01-12T11:54:01.921Z,98036.07
2018-01-12T11:56:29.430Z,98037.46
2018-01-12T11:58:56.942Z,98037.42
2018-01-12T12:01:24.494Z,98032.64
2018-01-12T12:03:52.055Z,98030.95
2018-01-12T12:06:19.615Z,98031.66
2018-01-12T12:08:47.162Z,98033.03
2018-01-12T12:11:14.678Z,98037.68
2018-01-12T12:13:42.193Z,98044.39
2018-01-12T12:16:09.762Z,98046.85
2018-01-12T12:18:37.308Z,98037.75
2018-01-12T12:21:04.828Z,98045.69
2018-01-12T12:23:32.406Z,98044.22
2018-01-12T12:25:59.929Z,98036.52
2018-01-12T12:28:27.446Z,98039.33
2018-01-12T12:30:55.616Z,98034.51
2018-01-12T12:33:23.125Z,98037.14
2018-01-12T12:35:50.638Z,98037.50
2018-01-12T12:38:18.600Z,98040.86
2018-01-12T12:40:46.159Z,98034.97
2018-01-12T12:43:13.669Z,98048.83
2018-01-12T12:45:41.482Z,98045.97
2018-01-12T12:48:08.993Z,98045.23
2018-01-12T12:50:36.506Z,98050.94
2018-01-12T12:53:04.238Z,98046.98
2018-01-12T12:55:31.770Z,98043.81
2018-01-12T12:58:00.284Z,98046.77
2018-01-12T13:00:28.374Z,98045.08
2018-01-12T13:02:55.943Z,98040.03
2018-01-12T13:05:23.535Z,98042.71
2018-01-12T13:07:51.463Z,98033.27
2018-01-12T13:10:19.007Z,98040.02
2018-01-12T13:12:46.681Z,98036.64
2018-01-12T13:15:14.426Z,98030.59
2018-01-12T13:17:42.113Z,98036.84
2018-01-12T13:20:09.664Z,98030.60
2018-01-12T13:22:37.514Z,98027.91
2018-01-12T13:25:05.055Z,98024.64
2018-01-12T13:27:32.568Z,98026.56
2018-01-12T13:30:00.621Z,98025.50
2018-01-12T13:32:28.175Z,98021.25
2018-01-12T13:34:55.692Z,98025.94
2018-01-12T13:37:23.602Z,98022.39
2018-01-12T13:39:51.366Z,98024.45
2018-01-12T13:42:18.925Z,98034.44
2018-01-12T13:44:47.100Z,98036.23
2018-01-12T13:47:14.658Z,98033.76
2018-01-12T13:49:42.422Z,98041.77
2018-01-12T13:52:10.187Z,98034.80
2018-01-12T13:54:37.843Z,98033.64
2018-01-12T13:57:05.408Z,98031.23
2018-01-12T13:59:33.187Z,98035.46
2018-01-12T14:02:01.037Z,98037.94
2018-01-12T14:04:28.863Z,98040.71
2018-01-12T14:06:56.570Z,98041.85
2018-01-12T14:09:24.145Z,98042.33
2018-01-12T14:11:51.684Z,98045.24
2018-01-12T14:14:19.450Z,98049.70
2018-01-12T14:16:47.112Z,98049.75
2018-01-12T14:19:15.629Z,98057.45
2018-01-12T14:21:43.554Z,98055.48
2018-01-12T14:24:11.219Z,98057.43
2018-01-12T14:26:38.984Z,98056.66
2018-01-12T14:29:06.977Z,98056.70
2018-01-12T14:31:34.795Z,98060.05
2018-01-12T14:34:02.379Z,98060.94
2018-01-12T14:36:30.233Z,98066.66
2018-01-12T14:38:58.220Z,98071.11
2018-01-12T14:41:26.079Z,98065.05
2018-01-12T14:43:53.949Z,98070.89
2018-01-12T14:46:21.533Z,98067.57
2018-01-12T14:48:49.065Z,98063.77
2018-01-12T14:51:16.745Z,98068.79
2018-01-12T14:53:44.517Z,98072.59
2018-01-12T14:56:12.075Z,98071.08
2018-01-12T14:58:39.948Z,98070.36
2018-01-12T15:01:07.525Z,98068.00
2018-01-12T15:03:35.238Z,98067.72
2018-01-12T15:06:03.134Z,98061.45
2018-01-12T15:08:31.792Z,98068.39
2018-01-12T15:10:59.368Z,98067.20
2018-01-12T15:13:26.929Z,98075.41
2018-01-12T15:15:54.476Z,98072.25
2018-01-12T15:18:22.231Z,98076.25
2018-01-12T15:20:49.793Z,98079.59
2018-01-12T15:23:17.312Z,98076.92
2018-01-12T15:25:44.839Z,98088.31
2018-01-12T15:28:12.792Z,98088.56
2018-01-12T15:30:41.562Z,98088.62
2018-01-12T15:33:09.130Z,98089.24
2018-01-12T15:35:37.025Z,98090.34
2018-01-12T15:38:04.566Z,98088.67
2018-01-12T15:40:32.312Z,98092.39
2018-01-12T15:42:59.920Z,98089.13
2018-01-12T15:45:27.446Z,98097.45
2018-01-12T15:47:55.006Z,98101.17
2018-01-12T15:50:22.753Z,98105.22
2018-01-12T15:52:50.313Z,98106.75
2018-01-12T15:55:17.872Z,98112.58
2018-01-12T15:57:45.546Z,98105.95
2018-01-12T16:00:13.092Z,98107.77
2018-01-12T16:02:40.650Z,98106.45
2018-01-12T16:05:08.722Z,98102.87
2018-01-12T16:07:36.485Z,98111.61
2018-01-12T16:10:04.002Z,98113.73
2018-01-12T16:12:31.565Z,98116.38
2018-01-12T16:14:59.103Z,98112.16
2018-01-12T16:17:26.620Z,98120.81
2018-01-12T16:19:54.814Z,98122.80
2018-01-12T16:22:22.373Z,98119.79
2018-01-12T16:24:49.913Z,98123.95
2018-01-12T16:27:17.687Z,98126.94
2018-01-12T16:29:45.337Z,98128.69
2018-01-12T16:32:12.896Z,98127.45
2018-01-12T16:34:40.557Z,98130.57
2018-01-12T16:37:08.219Z,98125.51
2018-01-12T16:39:36.957Z,98130.70
2018-01-12T16:42:04.879Z,98131.58
2018-01-12T16:44:32.740Z,98127.09
2018-01-12T16:47:00.299Z,98129.80
2018-01-12T16:49:27.961Z,98129.99
2018-01-12T16:51:55.514Z,98128.08
2018-01-12T16:54:23.078Z,98125.98
2018-01-12T16:56:50.637Z,98131.28
2018-01-12T16:59:18.198Z,98128.10
2018-01-12T17:01:45.813Z,98125.71
2018-01-12T17:04:13.416Z,98126.30
2018-01-12T17:06:41.078Z,98125.90
2018-01-12T17:09:08.594Z,98129.16
2018-01-12T17:11:36.299Z,98125.26
2018-01-12T17:14:03.878Z,98123.67
2018-01-12T17:16:31.418Z,98124.83
2018-01-12T17:18:59.385Z,98129.85
2018-01-12T17:21:27.048Z,98127.56
2018-01-12T17:23:55.018Z,98124.69
2018-01-12T17:26:22.756Z,98139.13
2018-01-12T17:28:50.444Z,98130.14
2018-01-12T17:31:18.210Z,98130.41
2018-01-12T17:33:46.995Z,98132.34
2018-01-12T17:36:14.537Z,98133.58
2018-01-12T17:38:42.219Z,98135.23
2018-01-12T17:41:10.183Z,98140.73
2018-01-12T17:43:38.820Z,98137.41
2018-01-12T17:46:06.367Z,98142.38
2018-01-12T17:48:34.195Z,98145.48
2018-01-12T17:51:01.751Z,98145.48
2018-01-12T17:53:29.333Z,98146.56
2018-01-12T17:55:56.890Z,98142.69
2018-01-12T17:58:24.428Z,98146.59
2018-01-12T18:00:51.986Z,98141.31
2018-01-12T18:03:19.752Z,98145.50
2018-01-12T18:05:47.311Z,98139.22
2018-01-12T18:08:14.870Z,98144.61
2018-01-12T18:10:43.645Z,98142.30
2018-01-12T18:13:11.169Z,98141.25
2018-01-12T18:15:39.502Z,98140.48
2018-01-12T18:18:07.154Z,98145.00
2018-01-12T18:20:35.122Z,98147.20
2018-01-12T18:23:02.887Z,98146.70
2018-01-12T18:25:30.974Z,98142.73
2018-01-12T18:27:58.938Z,98149.92
2018-01-12T18:30:26.603Z,98149.86
2018-01-12T18:32:54.852Z,98155.65
2018-01-12T18:35:22.918Z,98157.65
2018-01-12T18:37:51.125Z,98158.27
2018-01-12T18:40:19.503Z,98156.09
2018-01-12T18:42:47.459Z,98148.09
2018-01-12T18:45:15.118Z,98152.66
2018-01-12T18:47:43.207Z,98150.43
2018-01-12T18:50:11.641Z,98149.56
2018-01-12T18:52:39.929Z,98158.06
2018-01-12T18:55:08.450Z,98148.33
2018-01-12T18:57:36.615Z,98147.18
2018-01-12T19:00:04.629Z,98148.77
2018-01-12T19:02:32.954Z,98149.20
2018-01-12T19:05:01.125Z,98142.84
2018-01-12T19:07:29.208Z,98145.69
2018-01-12T19:09:57.459Z,98146.70
2018-01-12T19:12:25.438Z,98144.32
2018-01-12T19:14:53.420Z,98145.58
2018-01-12T19:17:21.677Z,98144.02
2018-01-12T19:19:53.148Z,98141.58
2018-01-12T19:22:22.226Z,98138.17
2018-01-12T19:24:50.481Z,98139.11
2018-01-12T19:27:18.387Z,98147.48
2018-01-12T19:29:46.660Z,98147.75
2018-01-12T19:32:15.045Z,98152.89
2018-01-12T19:34:42.791Z,98154.63
2018-01-12T19:37:10.803Z,98151.80
2018-01-12T19:39:39.081Z,98158.72
2018-01-12T19:42:06.907Z,98160.30
2018-01-12T19:44:35.281Z,98162.89
2018-01-12T19:47:03.674Z,98165.86
2018-01-12T19:49:32.183Z,98163.84
2018-01-12T19:52:00.321Z,98167.45
2018-01-12T19:54:28.905Z,98164.87
2018-01-12T19:56:57.154Z,98172.31
2018-01-12T19:59:25.442Z,98164.79
2018-01-12T20:01:53.974Z,98167.41
2018-01-12T20:04:22.067Z,98170.34
2018-01-12T20:06:51.074Z,98172.52
2018-01-12T20:09:19.782Z,98176.20
2018-01-12T20:11:47.765Z,98175.55
2018-01-12T20:14:16.245Z,98180.18
2018-01-12T20:16:44.014Z,98171.66
2018-01-12T20:19:12.107Z,98180.45
2018-01-12T20:21:40.151Z,98174.08
2018-01-12T20:24:08.157Z,98176.57
2018-01-12T20:26:36.188Z,98172.86
2018-01-12T20:29:04.554Z,98172.08
2018-01-12T20:31:32.496Z,98169.06
2018-01-12T20:34:00.389Z,98170.09
2018-01-12T20:36:28.756Z,98169.27
2018-01-12T20:38:56.621Z,98157.67
2018-01-12T20:41:24.570Z,98164.82
2018-01-12T20:43:52.692Z,98164.98
2018-01-12T20:46:20.589Z,98167.06
2018-01-12T20:48:48.429Z,98167.21
2018-01-12T20:51:16.599Z,98168.23
2018-01-12T20:53:44.241Z,98164.05
2018-01-12T20:56:13.153Z,98165.56
2018-01-12T20:58:41.325Z,98163.30
2018-01-12T21:01:10.008Z,98164.09
2018-01-12T21:03:38.084Z,98165.28
2018-01-12T21:06:06.343Z,98157.38
2018-01-12T21:08:34.319Z,98166.02
2018-01-12T21:11:02.290Z,98168.06
2018-01-12T21:13:30.603Z,98163.53
2018-01-12T21:15:58.623Z,98171.08
2018-01-12T21:18:26.506Z,98170.05
2018-01-12T21:20:55.440Z,98169.63
2018-01-12T21:23:24.598Z,98168.04
2018-01-12T21:25:52.466Z,98171.08
2018-01-12T21:28:21.362Z,98169.33
2018-01-12T21:30:49.319Z,98161.58
2018-01-12T21:33:17.294Z,98167.72
2018-01-12T21:35:45.328Z,98168.42
2018-01-12T21:38:13.119Z,98165.48
2018-01-12T21:40:41.097Z,98162.99
2018-01-12T21:43:09.474Z,98160.98
2018-01-12T21:45:37.217Z,98164.67
2018-01-12T21:48:05.374Z,98169.48
2018-01-12T21:50:33.975Z,98165.31
2018-01-12T21:53:01.955Z,98164.42
2018-01-12T21:55:29.811Z,98165.98
2018-01-12T21:57:57.694Z,98170.95
2018-01-12T22:00:26.583Z,98165.18
2018-01-12T22:02:54.608Z,98164.28
2018-01-12T22:05:22.619Z,98161.70
2018-01-12T22:07:50.473Z,98162.34
2018-01-12T22:10:18.341Z,98159.27
2018-01-12T22:12:47.151Z,98162.33
2018-01-12T22:15:14.789Z,98161.56
2018-01-12T22:17:42.861Z,98164.47
2018-01-12T22:20:11.575Z,98166.42
2018-01-12T22:22:39.489Z,98162.22
2018-01-12T22:25:07.571Z,98164.70
2018-01-12T22:27:35.673Z,98154.39
2018-01-12T22:30:03.433Z,98158.41
2018-01-12T22:32:31.812Z,98157.20
2018-01-12T22:34:59.997Z,98160.31
2018-01-12T22:37:28.269Z,98158.78
2018-01-12T22:39:57.328Z,98160.81
2018-01-12T22:42:25.524Z,98160.67
2018-01-12T22:44:53.270Z,98158.60
2018-01-12T22:47:22.245Z,98159.31
2018-01-12T22:49:50.464Z,98155.63
2018-01-12T22:52:18.435Z,98156.49
2018-01-12T22:54:46.407Z,98152.13
2018-01-12T22:57:14.582Z,98152.95
2018-01-12T22:59:42.351Z,98151.02
2018-01-12T23:02:10.516Z,98144.61
2018-01-12T23:04:38.897Z,98150.08
2018-01-12T23:07:06.765Z,98146.44
2018-01-12T23:09:35.032Z,98144.72
2018-01-12T23:12:03.155Z,98146.78
2018-01-12T23:14:30.979Z,98141.23
2018-01-12T23:16:58.808Z,98140.25
2018-01-12T23:19:26.396Z,98147.42
2018-01-12T23:21:54.119Z,98143.25
2018-01-12T23:24:21.983Z,98132.22
2018-01-12T23:26:49.992Z,98136.73
2018-01-12T23:29:18.688Z,98136.86
2018-01-12T23:31:46.344Z,98131.83
2018-01-12T23:34:14.600Z,98132.62
2018-01-12T23:36:42.486Z,98130.53
2018-01-12T23:39:10.246Z,98133.85
2018-01-12T23:41:38.372Z,98131.48
2018-01-12T23:44:06.197Z,98135.45
2018-01-12T23:46:34.062Z,98130.86
2018-01-12T23:49:02.028Z,98132.69
2018-01-12T23:51:29.691Z,98131.73
2018-01-12T23:53:57.546Z,98128.00
2018-01-12T23:56:25.456Z,98131.70
2018-01-12T23:58:53.028Z,98131.30
